createdAt,value
2019-04-23T00:02:23.242Z,16.90
2019-04-23T00:05:16.934Z,16.80
2019-04-23T00:08:11.263Z,16.70
2019-04-23T00:10:59.135Z,16.50
2019-04-23T00:13:49.847Z,16.30
2019-04-23T00:16:40.894Z,16.20
2019-04-23T00:19:33.063Z,16.10
2019-04-23T00:22:43.818Z,16.10
2019-04-23T00:26:13.029Z,16.00
2019-04-23T00:29:07.434Z,16.00
2019-04-23T00:31:53.344Z,16.00
2019-04-23T00:34:51.442Z,16.00
2019-04-23T00:40:25.820Z,15.90
2019-04-23T00:43:15.104Z,15.90
2019-04-23T00:45:59.322Z,15.80
2019-04-23T00:48:59.195Z,15.80
2019-04-23T00:51:34.737Z,15.70
2019-04-23T00:54:22.548Z,15.70
2019-04-23T01:00:02.066Z,15.60
2019-04-23T01:02:53.335Z,15.50
2019-04-23T01:05:52.684Z,15.40
2019-04-23T01:08:30.217Z,15.50
2019-04-23T01:14:17.686Z,15.50
2019-04-23T01:17:09.907Z,15.40
2019-04-23T01:20:01.621Z,15.30
2019-04-23T01:22:33.506Z,15.30
2019-04-23T01:25:43.673Z,15.30
2019-04-23T01:28:48.295Z,15.20
2019-04-23T01:31:44.547Z,15.30
2019-04-23T01:34:31.414Z,15.20
2019-04-23T01:37:26.801Z,15.10
2019-04-23T01:40:13.594Z,15.00
2019-04-23T01:42:58.717Z,14.90
2019-04-23T01:45:50.202Z,14.80
2019-04-23T01:48:50.294Z,14.80
2019-04-23T01:51:42.351Z,14.70
2019-04-23T01:54:25.757Z,14.70
2019-04-23T01:57:21.501Z,14.70
2019-04-23T02:00:13.396Z,14.60
2019-04-23T02:03:06.072Z,14.60
2019-04-23T02:05:53.520Z,14.60
2019-04-23T02:08:39.923Z,14.50
2019-04-23T02:11:28.170Z,14.40
2019-04-23T02:17:10.308Z,14.30
2019-04-23T02:20:14.439Z,14.20
2019-04-23T02:23:14.912Z,14.10
2019-04-23T02:28:46.289Z,13.90
2019-04-23T02:34:42.948Z,13.90
2019-04-23T02:48:54.564Z,13.50
2019-04-23T02:51:29.142Z,13.50
2019-04-23T02:54:33.132Z,13.40
2019-04-23T02:57:08.885Z,13.30
2019-04-23T03:00:16.140Z,13.20
2019-04-23T03:05:45.976Z,13.00
2019-04-23T03:08:36.372Z,12.90
2019-04-23T03:11:25.850Z,12.90
2019-04-23T03:17:13.095Z,12.80
2019-04-23T03:23:47.137Z,12.80
2019-04-23T03:26:42.147Z,12.80
2019-04-23T03:40:21.114Z,12.70
2019-04-23T03:43:26.264Z,12.60
2019-04-23T03:46:16.035Z,12.60
2019-04-23T03:51:42.881Z,12.50
2019-04-23T03:54:42.284Z,12.50
2019-04-23T03:57:30.925Z,12.40
2019-04-23T04:00:31.642Z,12.40
2019-04-23T04:03:10.361Z,12.20
2019-04-23T04:05:58.243Z,12.20
2019-04-23T04:11:33.733Z,12.10
2019-04-23T04:14:32.205Z,12.10
2019-04-23T04:17:15.911Z,12.00
2019-04-23T04:20:11.106Z,12.00
2019-04-23T04:23:19.506Z,12.00
2019-04-23T04:25:49.896Z,11.90
2019-04-23T04:31:36.895Z,11.80
2019-04-23T04:40:07.866Z,11.70
2019-04-23T04:43:00.138Z,11.70
2019-04-23T04:48:37.729Z,11.70
2019-04-23T04:51:28.979Z,11.70
2019-04-23T04:57:02.626Z,11.70
2019-04-23T05:00:06.799Z,11.70
2019-04-23T05:03:18.047Z,11.80
2019-04-23T05:08:29.021Z,11.90
2019-04-23T05:14:08.424Z,11.90
2019-04-23T05:19:57.423Z,12.00
2019-04-23T05:22:40.779Z,12.10
2019-04-23T05:25:16.926Z,12.20
2019-04-23T05:31:05.736Z,12.40
2019-04-23T05:34:00.298Z,12.40
2019-04-23T05:39:35.376Z,12.40
2019-04-23T05:42:26.069Z,12.50
2019-04-23T05:45:16.400Z,12.50
2019-04-23T05:48:12.974Z,12.50
2019-04-23T05:56:39.709Z,12.70
2019-04-23T05:59:29.927Z,12.80
2019-04-23T06:02:23.208Z,12.80
2019-04-23T06:05:14.750Z,12.90
2019-04-23T06:08:09.425Z,12.90
2019-04-23T06:10:55.602Z,13.00
2019-04-23T06:13:48.078Z,13.00
2019-04-23T06:16:35.645Z,13.10
2019-04-23T06:19:21.533Z,13.20
2019-04-23T06:25:22.094Z,13.30
2019-04-23T06:28:01.798Z,13.40
2019-04-23T06:30:56.080Z,13.50
2019-04-23T06:33:44.332Z,13.60
2019-04-23T06:36:33.345Z,13.70
2019-04-23T06:39:26.256Z,13.80
2019-04-23T06:42:14.076Z,13.90
2019-04-23T06:45:00.999Z,13.90
2019-04-23T06:48:02.257Z,14.00
2019-04-23T06:50:48.817Z,14.10
2019-04-23T06:53:37.443Z,14.10
2019-04-23T06:56:33.461Z,14.20
2019-04-23T06:59:19.969Z,14.20
2019-04-23T07:02:11.801Z,14.30
2019-04-23T07:05:06.618Z,14.30
2019-04-23T07:08:04.291Z,14.40
2019-04-23T07:10:40.604Z,14.40
2019-04-23T07:13:44.909Z,14.50
2019-04-23T07:16:34.869Z,14.50
2019-04-23T07:19:17.724Z,14.60
2019-04-23T07:22:08.147Z,14.70
2019-04-23T07:24:58.036Z,14.70
2019-04-23T07:27:40.890Z,14.80
2019-04-23T07:30:32.924Z,14.90
2019-04-23T07:33:31.106Z,14.90
2019-04-23T07:36:17.238Z,15.00
2019-04-23T07:42:35.356Z,15.10
2019-04-23T07:45:54.836Z,15.20
2019-04-23T07:48:34.106Z,15.30
2019-04-23T07:51:44.858Z,15.50
2019-04-23T07:54:22.843Z,15.60
2019-04-23T08:00:00.730Z,15.90
2019-04-23T08:03:01.898Z,16.00
2019-04-23T08:05:39.701Z,16.10
2019-04-23T08:08:30.314Z,16.20
2019-04-23T08:11:33.065Z,16.40
2019-04-23T08:14:08.368Z,16.50
2019-04-23T08:17:04.326Z,16.70
2019-04-23T08:20:03.068Z,16.80
2019-04-23T08:22:45.800Z,16.90
2019-04-23T08:26:10.137Z,17.00
2019-04-23T08:29:04.101Z,17.10
2019-04-23T08:31:27.473Z,17.20
2019-04-23T08:34:17.135Z,17.30
2019-04-23T08:37:06.435Z,17.40
2019-04-23T08:39:47.058Z,17.40
2019-04-23T08:42:45.747Z,17.50
2019-04-23T08:45:53.615Z,17.60
2019-04-23T08:48:50.283Z,17.60
2019-04-23T08:51:45.877Z,17.70
2019-04-23T08:54:47.023Z,17.80
2019-04-23T09:00:09.226Z,18.00
2019-04-23T09:03:00.552Z,18.00
2019-04-23T09:05:56.232Z,18.10
2019-04-23T09:08:37.457Z,18.20
2019-04-23T09:11:44.122Z,18.20
2019-04-23T09:14:08.759Z,18.20
2019-04-23T09:17:28.933Z,18.30
2019-04-23T09:20:18.542Z,18.30
2019-04-23T09:22:50.345Z,18.30
2019-04-23T09:25:47.722Z,18.30
2019-04-23T09:28:39.697Z,18.30
2019-04-23T09:38:05.519Z,18.30
2019-04-23T09:47:40.931Z,18.50
2019-04-23T09:50:33.100Z,18.60
2019-04-23T09:56:06.716Z,18.80
2019-04-23T09:59:02.319Z,18.90
2019-04-23T10:01:45.172Z,19.00
2019-04-23T10:04:27.901Z,19.00
2019-04-23T10:07:16.452Z,19.00
2019-04-23T10:09:55.690Z,19.00
2019-04-23T10:12:46.182Z,19.20
2019-04-23T10:15:40.392Z,19.20
2019-04-23T10:18:26.852Z,19.30
2019-04-23T10:20:57.321Z,19.40
2019-04-23T10:23:47.462Z,19.50
2019-04-23T10:26:37.941Z,19.60
2019-04-23T10:29:13.857Z,19.70
2019-04-23T10:32:03.848Z,19.80
2019-04-23T10:35:05.299Z,20.00
2019-04-23T10:37:50.943Z,20.10
2019-04-23T10:40:39.887Z,20.20
2019-04-23T10:43:25.132Z,20.20
2019-04-23T10:46:53.080Z,20.20
2019-04-23T10:52:53.753Z,20.50
2019-04-23T10:55:44.728Z,20.50
2019-04-23T10:58:31.852Z,20.50
2019-04-23T11:01:20.841Z,20.60
2019-04-23T11:13:25.262Z,21.10
2019-04-23T11:16:40.038Z,21.20
2019-04-23T11:21:58.441Z,21.30
2019-04-23T11:24:53.402Z,21.40
2019-04-23T11:27:36.229Z,21.40
2019-04-23T11:47:23.196Z,21.90
2019-04-23T11:50:13.972Z,21.90
2019-04-23T11:53:00.278Z,21.90
2019-04-23T11:58:37.596Z,21.90
2019-04-23T12:01:49.221Z,21.90
2019-04-23T12:08:01.076Z,22.10
2019-04-23T12:14:30.535Z,22.30
2019-04-23T12:17:28.944Z,22.30
2019-04-23T12:20:03.343Z,22.40
2019-04-23T12:22:58.768Z,22.40
2019-04-23T12:28:40.833Z,22.60
2019-04-23T12:31:28.636Z,22.60
2019-04-23T12:33:57.692Z,22.60
2019-04-23T12:36:48.378Z,22.60
2019-04-23T12:39:27.051Z,22.70
2019-04-23T12:42:08.577Z,22.80
2019-04-23T12:44:52.544Z,22.80
2019-04-23T12:47:53.642Z,22.80
2019-04-23T12:50:45.040Z,22.80
2019-04-23T12:56:08.839Z,22.80
2019-04-23T12:58:51.584Z,22.90
2019-04-23T13:01:55.897Z,22.90
2019-04-23T13:04:44.904Z,22.90
2019-04-23T13:07:40.117Z,22.90
2019-04-23T13:10:21.076Z,22.90
2019-04-23T13:13:16.671Z,23.00
2019-04-23T13:16:05.646Z,23.00
2019-04-23T13:18:50.681Z,23.00
2019-04-23T13:24:54.169Z,23.00
2019-04-23T13:27:57.259Z,23.00
2019-04-23T13:33:39.065Z,23.00
2019-04-23T13:39:17.962Z,23.00
2019-04-23T13:42:07.631Z,23.00
2019-04-23T13:44:56.015Z,23.10
2019-04-23T13:47:53.237Z,23.00
2019-04-23T13:56:25.227Z,23.10
2019-04-23T13:59:18.830Z,23.10
2019-04-23T14:02:07.736Z,23.20
2019-04-23T14:05:12.346Z,23.30
2019-04-23T14:08:02.655Z,23.30
2019-04-23T14:10:55.719Z,23.30
2019-04-23T14:16:48.812Z,23.40
2019-04-23T14:19:16.492Z,23.40
2019-04-23T14:22:43.391Z,23.50
2019-04-23T14:25:07.818Z,23.60
2019-04-23T14:28:11.636Z,23.60
2019-04-23T14:30:53.414Z,23.70
2019-04-23T14:34:00.086Z,23.70
2019-04-23T14:42:20.971Z,23.80
2019-04-23T14:45:23.209Z,23.90
2019-04-23T14:47:59.094Z,24.00
2019-04-23T14:51:09.867Z,24.10
2019-04-23T14:53:40.533Z,24.20
2019-04-23T14:56:28.795Z,24.20
2019-04-23T15:01:36.090Z,24.30
2019-04-23T15:04:28.628Z,24.40
2019-04-23T15:10:18.604Z,24.40
2019-04-23T15:13:01.830Z,24.50
2019-04-23T15:15:55.642Z,24.50
2019-04-23T15:19:21.694Z,24.50
2019-04-23T15:25:06.983Z,24.70
2019-04-23T15:27:29.583Z,24.60
2019-04-23T15:30:29.507Z,24.80
2019-04-23T15:33:35.261Z,24.90
2019-04-23T15:36:32.520Z,24.90
2019-04-23T15:39:21.074Z,24.90
2019-04-23T15:42:09.295Z,24.90
2019-04-23T15:44:49.050Z,24.80
2019-04-23T15:47:45.740Z,24.80
2019-04-23T15:50:32.231Z,24.90
2019-04-23T15:53:11.230Z,24.90
2019-04-23T15:56:18.280Z,24.90
2019-04-23T15:59:25.923Z,24.90
2019-04-23T16:01:39.481Z,24.90
2019-04-23T16:04:15.340Z,24.90
2019-04-23T16:06:45.693Z,24.80
2019-04-23T16:10:12.604Z,24.80
2019-04-23T16:12:56.336Z,24.70
2019-04-23T16:15:43.377Z,24.70
2019-04-23T16:19:07.597Z,24.60
2019-04-23T16:24:51.817Z,24.60
2019-04-23T16:27:48.993Z,24.60
2019-04-23T16:33:20.159Z,24.50
2019-04-23T16:38:58.613Z,24.50
2019-04-23T16:41:54.619Z,24.50
2019-04-23T16:44:46.498Z,24.50
2019-04-23T16:47:28.146Z,24.40
2019-04-23T16:50:56.162Z,24.40
2019-04-23T16:53:20.947Z,24.40
2019-04-23T16:56:13.412Z,24.40
2019-04-23T16:59:02.436Z,24.30
2019-04-23T17:01:52.373Z,24.30
2019-04-23T17:04:39.272Z,24.20
2019-04-23T17:07:27.270Z,24.10
2019-04-23T17:10:23.242Z,24.10
2019-04-23T17:16:06.709Z,24.00
2019-04-23T17:21:25.169Z,23.90
2019-04-23T17:24:21.104Z,23.80
2019-04-23T17:27:16.608Z,23.80
2019-04-23T17:29:57.838Z,23.70
2019-04-23T17:32:57.223Z,23.60
2019-04-23T17:36:12.086Z,23.50
2019-04-23T17:38:51.432Z,23.40
2019-04-23T17:42:01.007Z,23.30
2019-04-23T17:45:09.968Z,23.10
2019-04-23T17:47:52.413Z,23.00
2019-04-23T17:53:54.440Z,22.80
2019-04-23T17:56:55.848Z,22.70
2019-04-23T18:00:25.495Z,22.60
2019-04-23T18:05:37.390Z,22.50
2019-04-23T18:08:27.133Z,22.40
2019-04-23T18:11:16.212Z,22.40
2019-04-23T18:17:07.558Z,22.20
2019-04-23T18:20:14.870Z,22.10
2019-04-23T18:26:02.096Z,22.00
2019-04-23T18:29:00.324Z,21.90
2019-04-23T18:31:59.740Z,21.90
2019-04-23T18:35:04.279Z,21.80
2019-04-23T18:40:21.582Z,21.70
2019-04-23T18:43:24.004Z,21.60
2019-04-23T18:46:08.701Z,21.60
2019-04-23T18:51:34.476Z,21.50
2019-04-23T18:54:22.359Z,21.40
2019-04-23T18:57:12.644Z,21.40
2019-04-23T19:00:07.481Z,21.30
2019-04-23T19:03:21.152Z,21.30
2019-04-23T19:06:23.874Z,21.30
2019-04-23T19:09:23.883Z,21.20
2019-04-23T19:12:34.898Z,21.20
2019-04-23T19:15:21.550Z,21.10
2019-04-23T19:17:56.495Z,21.10
2019-04-23T19:20:37.925Z,21.00
2019-04-23T19:23:16.372Z,21.00
2019-04-23T19:29:11.574Z,20.90
2019-04-23T19:34:46.913Z,20.90
2019-04-23T19:37:49.478Z,20.90
2019-04-23T19:40:37.999Z,20.80
2019-04-23T19:43:19.847Z,20.80
2019-04-23T19:46:33.959Z,20.80
2019-04-23T19:49:05.752Z,20.80
2019-04-23T19:51:56.732Z,20.70
2019-04-23T19:54:52.614Z,20.70
2019-04-23T19:57:49.282Z,20.70
2019-04-23T20:00:31.189Z,20.70
2019-04-23T20:03:26.648Z,20.70
2019-04-23T20:14:41.706Z,20.60
2019-04-23T20:20:18.222Z,20.60
2019-04-23T20:23:13.266Z,20.50
2019-04-23T20:26:15.648Z,20.50
2019-04-23T20:38:03.038Z,20.40
2019-04-23T20:40:33.017Z,20.40
2019-04-23T20:43:18.959Z,20.40
2019-04-23T20:46:06.570Z,20.30
2019-04-23T20:49:00.556Z,20.30
2019-04-23T21:00:43.247Z,20.30
2019-04-23T21:03:52.244Z,20.20
2019-04-23T21:06:47.039Z,20.20
2019-04-23T21:12:04.805Z,20.10
2019-04-23T21:15:05.411Z,20.10
2019-04-23T21:20:53.429Z,20.10
2019-04-23T21:26:20.090Z,20.10
2019-04-23T21:29:09.125Z,20.00
2019-04-23T21:32:08.818Z,20.00
2019-04-23T21:34:56.444Z,20.00
2019-04-23T21:37:55.936Z,19.90
2019-04-23T21:41:00.923Z,19.90
2019-04-23T21:46:36.815Z,19.90
2019-04-23T21:49:25.130Z,19.90
2019-04-23T21:52:11.531Z,19.80
2019-04-23T21:55:03.707Z,19.80
2019-04-23T21:58:01.365Z,19.70
2019-04-23T22:00:51.952Z,19.70
2019-04-23T22:04:01.052Z,19.70
2019-04-23T22:06:39.597Z,19.70
2019-04-23T22:20:43.692Z,19.50
2019-04-23T22:23:48.243Z,19.50
2019-04-23T22:26:34.711Z,19.50
2019-04-23T22:29:18.365Z,19.40
2019-04-23T22:32:00.157Z,19.40
2019-04-23T22:34:57.199Z,19.40
2019-04-23T22:37:53.917Z,19.40
2019-04-23T22:40:36.248Z,19.40
2019-04-23T22:55:17.547Z,19.30
2019-04-23T23:01:23.748Z,19.20
2019-04-23T23:04:15.182Z,19.20
2019-04-23T23:10:00.561Z,19.20
2019-04-23T23:12:51.304Z,19.20
2019-04-23T23:21:13.392Z,19.10
2019-04-23T23:27:02.412Z,19.10
2019-04-23T23:30:01.065Z,19.10
2019-04-23T23:32:40.480Z,19.10
2019-04-23T23:35:28.319Z,19.10
2019-04-23T23:38:25.526Z,19.10
2019-04-23T23:44:20.925Z,19.10
2019-04-23T23:47:01.715Z,19.10
2019-04-23T23:49:48.526Z,19.00
2019-04-23T23:52:40.275Z,19.00
2019-04-23T23:55:07.861Z,19.00
2019-04-23T23:58:02.911Z,18.90
